sensor_id;sensor_type;location;lat;lon;timestamp;temperature;humidity
4518;DHT22;2271;49.464;11.070;2024-03-08T00:01:30;4.60;99.90
4518;DHT22;2271;49.464;11.070;2024-03-08T00:03:56;4.60;99.90
4518;DHT22;2271;49.464;11.070;2024-03-08T00:06:22;4.60;99.90
4518;DHT22;2271;49.464;11.070;2024-03-08T00:08:47;4.60;99.90
4518;DHT22;2271;49.464;11.070;2024-03-08T00:11:13;4.60;99.90
4518;DHT22;2271;49.464;11.070;2024-03-08T00:13:39;4.70;99.90
4518;DHT22;2271;49.464;11.070;2024-03-08T00:16:04;4.70;99.90
4518;DHT22;2271;49.464;11.070;2024-03-08T00:18:30;4.70;99.90
4518;DHT22;2271;49.464;11.070;2024-03-08T00:20:56;4.60;99.90
4518;DHT22;2271;49.464;11.070;2024-03-08T00:23:21;4.50;99.90
4518;DHT22;2271;49.464;11.070;2024-03-08T00:25:47;4.50;99.90
4518;DHT22;2271;49.464;11.070;2024-03-08T00:28:12;4.40;99.90
4518;DHT22;2271;49.464;11.070;2024-03-08T00:30:40;4.40;99.90
4518;DHT22;2271;49.464;11.070;2024-03-08T00:33:06;4.30;99.90
4518;DHT22;2271;49.464;11.070;2024-03-08T00:35:31;4.30;99.90
4518;DHT22;2271;49.464;11.070;2024-03-08T00:37:57;4.30;99.90
4518;DHT22;2271;49.464;11.070;2024-03-08T00:40:22;4.40;99.90
4518;DHT22;2271;49.464;11.070;2024-03-08T00:42:48;4.30;99.90
4518;DHT22;2271;49.464;11.070;2024-03-08T00:45:14;4.30;99.90
4518;DHT22;2271;49.464;11.070;2024-03-08T00:47:39;4.30;99.90
4518;DHT22;2271;49.464;11.070;2024-03-08T00:50:05;4.20;99.90
4518;DHT22;2271;49.464;11.070;2024-03-08T00:52:31;4.20;99.90
4518;DHT22;2271;49.464;11.070;2024-03-08T00:54:57;4.20;99.90
4518;DHT22;2271;49.464;11.070;2024-03-08T00:57:22;4.10;99.90
4518;DHT22;2271;49.464;11.070;2024-03-08T00:59:48;4.20;99.90
4518;DHT22;2271;49.464;11.070;2024-03-08T01:02:13;4.20;99.90
4518;DHT22;2271;49.464;11.070;2024-03-08T01:04:39;4.20;99.90
4518;DHT22;2271;49.464;11.070;2024-03-08T01:07:05;4.30;99.90
4518;DHT22;2271;49.464;11.070;2024-03-08T01:09:31;4.30;99.90
4518;DHT22;2271;49.464;11.070;2024-03-08T01:11:57;4.30;99.90
4518;DHT22;2271;49.464;11.070;2024-03-08T01:14:23;4.20;99.90
4518;DHT22;2271;49.464;11.070;2024-03-08T01:16:50;4.10;99.90
4518;DHT22;2271;49.464;11.070;2024-03-08T01:19:15;4.10;99.90
4518;DHT22;2271;49.464;11.070;2024-03-08T01:21:42;4.10;99.90
4518;DHT22;2271;49.464;11.070;2024-03-08T01:24:07;4.20;99.90
4518;DHT22;2271;49.464;11.070;2024-03-08T01:26:33;4.10;99.90
4518;DHT22;2271;49.464;11.070;2024-03-08T01:29:02;4.00;99.90
4518;DHT22;2271;49.464;11.070;2024-03-08T01:31:29;3.90;99.90
4518;DHT22;2271;49.464;11.070;2024-03-08T01:33:56;4.00;99.90
4518;DHT22;2271;49.464;11.070;2024-03-08T01:36:21;3.90;99.90
4518;DHT22;2271;49.464;11.070;2024-03-08T01:38:47;3.90;99.90
4518;DHT22;2271;49.464;11.070;2024-03-08T01:41:12;3.90;99.90
4518;DHT22;2271;49.464;11.070;2024-03-08T01:43:38;3.90;99.90
4518;DHT22;2271;49.464;11.070;2024-03-08T01:46:05;3.90;99.90
4518;DHT22;2271;49.464;11.070;2024-03-08T01:48:31;3.90;99.90
4518;DHT22;2271;49.464;11.070;2024-03-08T01:50:57;3.80;99.90
4518;DHT22;2271;49.464;11.070;2024-03-08T01:53:29;3.70;99.90
4518;DHT22;2271;49.464;11.070;2024-03-08T01:55:57;3.80;99.90
4518;DHT22;2271;49.464;11.070;2024-03-08T01:58:24;3.80;99.90
4518;DHT22;2271;49.464;11.070;2024-03-08T02:00:50;3.90;99.90
4518;DHT22;2271;49.464;11.070;2024-03-08T02:03:16;3.90;99.90
4518;DHT22;2271;49.464;11.070;2024-03-08T02:05:42;3.90;99.90
4518;DHT22;2271;49.464;11.070;2024-03-08T02:08:09;3.90;99.90
4518;DHT22;2271;49.464;11.070;2024-03-08T02:10:40;3.80;99.90
4518;DHT22;2271;49.464;11.070;2024-03-08T02:13:07;3.90;99.90
4518;DHT22;2271;49.464;11.070;2024-03-08T02:16:08;3.90;99.90
4518;DHT22;2271;49.464;11.070;2024-03-08T02:18:34;3.90;99.90
4518;DHT22;2271;49.464;11.070;2024-03-08T02:21:01;3.80;99.90
4518;DHT22;2271;49.464;11.070;2024-03-08T02:23:30;3.90;99.90
4518;DHT22;2271;49.464;11.070;2024-03-08T02:25:56;3.90;99.90
4518;DHT22;2271;49.464;11.070;2024-03-08T02:28:23;3.80;99.90
4518;DHT22;2271;49.464;11.070;2024-03-08T02:30:50;3.80;99.90
4518;DHT22;2271;49.464;11.070;2024-03-08T02:33:17;3.80;99.90
4518;DHT22;2271;49.464;11.070;2024-03-08T02:35:44;3.80;99.90
4518;DHT22;2271;49.464;11.070;2024-03-08T02:38:13;3.70;99.90
4518;DHT22;2271;49.464;11.070;2024-03-08T02:40:52;3.70;99.90
4518;DHT22;2271;49.464;11.070;2024-03-08T02:43:20;3.60;99.90
4518;DHT22;2271;49.464;11.070;2024-03-08T02:45:47;3.70;99.90
4518;DHT22;2271;49.464;11.070;2024-03-08T02:48:14;3.60;99.90
4518;DHT22;2271;49.464;11.070;2024-03-08T02:50:40;3.70;99.90
4518;DHT22;2271;49.464;11.070;2024-03-08T02:53:07;3.70;99.90
4518;DHT22;2271;49.464;11.070;2024-03-08T02:55:33;3.70;99.90
4518;DHT22;2271;49.464;11.070;2024-03-08T02:58:04;3.70;99.90
4518;DHT22;2271;49.464;11.070;2024-03-08T03:00:30;3.60;99.90
4518;DHT22;2271;49.464;11.070;2024-03-08T03:02:59;3.50;99.90
4518;DHT22;2271;49.464;11.070;2024-03-08T03:05:25;3.60;99.90
4518;DHT22;2271;49.464;11.070;2024-03-08T03:07:51;3.70;99.90
4518;DHT22;2271;49.464;11.070;2024-03-08T03:10:17;3.70;99.90
4518;DHT22;2271;49.464;11.070;2024-03-08T03:12:44;3.80;99.90
4518;DHT22;2271;49.464;11.070;2024-03-08T03:15:12;3.90;99.90
4518;DHT22;2271;49.464;11.070;2024-03-08T03:17:38;3.80;99.90
4518;DHT22;2271;49.464;11.070;2024-03-08T03:20:06;3.80;99.90
4518;DHT22;2271;49.464;11.070;2024-03-08T03:22:36;3.80;99.90
4518;DHT22;2271;49.464;11.070;2024-03-08T03:25:03;3.70;99.90
4518;DHT22;2271;49.464;11.070;2024-03-08T03:27:29;3.60;99.90
4518;DHT22;2271;49.464;11.070;2024-03-08T03:29:56;3.50;99.90
4518;DHT22;2271;49.464;11.070;2024-03-08T03:32:23;3.50;99.90
4518;DHT22;2271;49.464;11.070;2024-03-08T03:34:49;3.60;99.90
4518;DHT22;2271;49.464;11.070;2024-03-08T03:37:18;3.60;99.90
4518;DHT22;2271;49.464;11.070;2024-03-08T03:39:45;3.60;99.90
4518;DHT22;2271;49.464;11.070;2024-03-08T03:42:19;3.60;99.90
4518;DHT22;2271;49.464;11.070;2024-03-08T03:44:46;3.50;99.90
4518;DHT22;2271;49.464;11.070;2024-03-08T03:47:13;3.50;99.90
4518;DHT22;2271;49.464;11.070;2024-03-08T03:49:40;3.50;99.90
4518;DHT22;2271;49.464;11.070;2024-03-08T03:52:06;3.60;99.90
4518;DHT22;2271;49.464;11.070;2024-03-08T03:54:32;3.50;99.90
4518;DHT22;2271;49.464;11.070;2024-03-08T03:56:59;3.30;99.90
4518;DHT22;2271;49.464;11.070;2024-03-08T03:59:26;3.30;99.90
4518;DHT22;2271;49.464;11.070;2024-03-08T04:01:53;3.40;99.90
4518;DHT22;2271;49.464;11.070;2024-03-08T04:04:18;3.40;99.90
4518;DHT22;2271;49.464;11.070;2024-03-08T04:06:44;3.30;99.90
4518;DHT22;2271;49.464;11.070;2024-03-08T04:09:10;3.30;99.90
4518;DHT22;2271;49.464;11.070;2024-03-08T04:11:36;3.20;99.90
4518;DHT22;2271;49.464;11.070;2024-03-08T04:14:02;3.20;99.90
4518;DHT22;2271;49.464;11.070;2024-03-08T04:16:27;3.20;99.90
4518;DHT22;2271;49.464;11.070;2024-03-08T04:18:53;3.40;99.90
4518;DHT22;2271;49.464;11.070;2024-03-08T04:21:19;3.30;99.90
4518;DHT22;2271;49.464;11.070;2024-03-08T04:23:45;3.30;99.90
4518;DHT22;2271;49.464;11.070;2024-03-08T04:26:11;3.40;99.90
4518;DHT22;2271;49.464;11.070;2024-03-08T04:28:37;3.50;99.90
4518;DHT22;2271;49.464;11.070;2024-03-08T04:31:03;3.50;99.90
4518;DHT22;2271;49.464;11.070;2024-03-08T04:33:29;3.50;99.90
4518;DHT22;2271;49.464;11.070;2024-03-08T04:35:54;3.40;99.90
4518;DHT22;2271;49.464;11.070;2024-03-08T04:38:20;3.40;99.90
4518;DHT22;2271;49.464;11.070;2024-03-08T04:40:46;3.40;99.90
4518;DHT22;2271;49.464;11.070;2024-03-08T04:43:11;3.30;99.90
4518;DHT22;2271;49.464;11.070;2024-03-08T04:45:37;3.40;99.90
4518;DHT22;2271;49.464;11.070;2024-03-08T04:48:03;3.40;99.90
4518;DHT22;2271;49.464;11.070;2024-03-08T04:50:29;3.40;99.90
4518;DHT22;2271;49.464;11.070;2024-03-08T04:52:55;3.50;99.90
4518;DHT22;2271;49.464;11.070;2024-03-08T04:55:21;3.50;99.90
4518;DHT22;2271;49.464;11.070;2024-03-08T04:57:47;3.40;99.90
4518;DHT22;2271;49.464;11.070;2024-03-08T05:00:13;3.40;99.90
4518;DHT22;2271;49.464;11.070;2024-03-08T05:02:41;3.50;99.90
4518;DHT22;2271;49.464;11.070;2024-03-08T05:05:07;3.50;99.90
4518;DHT22;2271;49.464;11.070;2024-03-08T05:07:33;3.40;99.90
4518;DHT22;2271;49.464;11.070;2024-03-08T05:09:59;3.30;99.90
4518;DHT22;2271;49.464;11.070;2024-03-08T05:12:25;3.30;99.90
4518;DHT22;2271;49.464;11.070;2024-03-08T05:14:51;3.40;99.90
4518;DHT22;2271;49.464;11.070;2024-03-08T05:17:17;3.40;99.90
4518;DHT22;2271;49.464;11.070;2024-03-08T05:19:42;3.30;99.90
4518;DHT22;2271;49.464;11.070;2024-03-08T05:22:09;3.30;99.90
4518;DHT22;2271;49.464;11.070;2024-03-08T05:24:35;3.20;99.90
4518;DHT22;2271;49.464;11.070;2024-03-08T05:27:01;3.20;99.90
4518;DHT22;2271;49.464;11.070;2024-03-08T05:29:28;3.10;99.90
4518;DHT22;2271;49.464;11.070;2024-03-08T05:31:54;3.20;99.90
4518;DHT22;2271;49.464;11.070;2024-03-08T05:34:20;3.20;99.90
4518;DHT22;2271;49.464;11.070;2024-03-08T05:36:47;3.30;99.90
4518;DHT22;2271;49.464;11.070;2024-03-08T05:39:15;3.20;99.90
4518;DHT22;2271;49.464;11.070;2024-03-08T05:41:42;3.20;99.90
4518;DHT22;2271;49.464;11.070;2024-03-08T05:44:08;3.10;99.90
4518;DHT22;2271;49.464;11.070;2024-03-08T05:46:34;3.10;99.90
4518;DHT22;2271;49.464;11.070;2024-03-08T05:49:03;3.10;99.90
4518;DHT22;2271;49.464;11.070;2024-03-08T05:51:37;3.20;99.90
4518;DHT22;2271;49.464;11.070;2024-03-08T05:54:04;3.20;99.90
4518;DHT22;2271;49.464;11.070;2024-03-08T05:56:34;3.30;99.90
4518;DHT22;2271;49.464;11.070;2024-03-08T05:59:01;3.30;99.90
4518;DHT22;2271;49.464;11.070;2024-03-08T06:01:27;3.20;99.90
4518;DHT22;2271;49.464;11.070;2024-03-08T06:03:53;3.30;99.90
4518;DHT22;2271;49.464;11.070;2024-03-08T06:06:21;3.20;99.90
4518;DHT22;2271;49.464;11.070;2024-03-08T06:08:48;3.30;99.90
4518;DHT22;2271;49.464;11.070;2024-03-08T06:11:15;3.30;99.90
4518;DHT22;2271;49.464;11.070;2024-03-08T06:13:42;3.30;99.90
4518;DHT22;2271;49.464;11.070;2024-03-08T06:16:08;3.20;99.90
4518;DHT22;2271;49.464;11.070;2024-03-08T06:18:34;3.10;99.90
4518;DHT22;2271;49.464;11.070;2024-03-08T06:21:03;3.10;99.90
4518;DHT22;2271;49.464;11.070;2024-03-08T06:23:30;2.90;99.90
4518;DHT22;2271;49.464;11.070;2024-03-08T06:25:56;3.00;99.90
4518;DHT22;2271;49.464;11.070;2024-03-08T06:28:23;3.10;99.90
4518;DHT22;2271;49.464;11.070;2024-03-08T06:30:48;3.50;99.90
4518;DHT22;2271;49.464;11.070;2024-03-08T06:33:16;5.10;99.90
4518;DHT22;2271;49.464;11.070;2024-03-08T06:35:41;7.10;99.90
4518;DHT22;2271;49.464;11.070;2024-03-08T06:38:07;8.90;99.90
4518;DHT22;2271;49.464;11.070;2024-03-08T06:40:32;10.10;99.90
4518;DHT22;2271;49.464;11.070;2024-03-08T06:42:58;11.50;99.90
4518;DHT22;2271;49.464;11.070;2024-03-08T06:45:24;11.70;99.90
4518;DHT22;2271;49.464;11.070;2024-03-08T06:47:51;12.10;99.90
4518;DHT22;2271;49.464;11.070;2024-03-08T06:50:17;12.90;99.90
4518;DHT22;2271;49.464;11.070;2024-03-08T06:52:42;13.00;99.90
4518;DHT22;2271;49.464;11.070;2024-03-08T06:55:09;12.80;99.90
4518;DHT22;2271;49.464;11.070;2024-03-08T06:57:40;10.40;99.90
4518;DHT22;2271;49.464;11.070;2024-03-08T07:00:07;8.00;99.90
4518;DHT22;2271;49.464;11.070;2024-03-08T07:02:35;6.40;99.90
4518;DHT22;2271;49.464;11.070;2024-03-08T07:05:01;5.40;99.90
4518;DHT22;2271;49.464;11.070;2024-03-08T07:07:27;5.00;99.90
4518;DHT22;2271;49.464;11.070;2024-03-08T07:09:52;4.60;99.90
4518;DHT22;2271;49.464;11.070;2024-03-08T07:12:19;4.40;99.90
4518;DHT22;2271;49.464;11.070;2024-03-08T07:14:46;4.40;99.90
4518;DHT22;2271;49.464;11.070;2024-03-08T07:17:12;4.40;99.90
4518;DHT22;2271;49.464;11.070;2024-03-08T07:19:38;4.30;99.90
4518;DHT22;2271;49.464;11.070;2024-03-08T07:22:04;4.30;99.90
4518;DHT22;2271;49.464;11.070;2024-03-08T07:24:30;4.30;99.90
4518;DHT22;2271;49.464;11.070;2024-03-08T07:27:21;4.10;99.90
4518;DHT22;2271;49.464;11.070;2024-03-08T07:29:46;4.10;99.90
4518;DHT22;2271;49.464;11.070;2024-03-08T07:32:13;4.20;99.90
4518;DHT22;2271;49.464;11.070;2024-03-08T07:34:50;4.30;99.90
4518;DHT22;2271;49.464;11.070;2024-03-08T07:37:18;4.30;99.90
4518;DHT22;2271;49.464;11.070;2024-03-08T07:39:45;4.10;99.90
4518;DHT22;2271;49.464;11.070;2024-03-08T07:42:11;4.20;99.90
4518;DHT22;2271;49.464;11.070;2024-03-08T07:44:37;4.30;99.90
4518;DHT22;2271;49.464;11.070;2024-03-08T07:47:03;4.40;99.90
4518;DHT22;2271;49.464;11.070;2024-03-08T07:49:29;4.50;99.90
4518;DHT22;2271;49.464;11.070;2024-03-08T07:51:56;4.50;99.90
4518;DHT22;2271;49.464;11.070;2024-03-08T07:54:22;4.50;99.90
4518;DHT22;2271;49.464;11.070;2024-03-08T07:56:47;4.50;99.90
4518;DHT22;2271;49.464;11.070;2024-03-08T07:59:13;4.60;99.90
4518;DHT22;2271;49.464;11.070;2024-03-08T08:01:38;4.60;99.90
4518;DHT22;2271;49.464;11.070;2024-03-08T08:04:04;4.70;99.90
4518;DHT22;2271;49.464;11.070;2024-03-08T08:06:30;4.90;99.90
4518;DHT22;2271;49.464;11.070;2024-03-08T08:09:00;5.10;99.90
4518;DHT22;2271;49.464;11.070;2024-03-08T08:11:29;5.10;99.90
4518;DHT22;2271;49.464;11.070;2024-03-08T08:13:54;5.10;99.90
4518;DHT22;2271;49.464;11.070;2024-03-08T08:16:22;5.20;99.90
4518;DHT22;2271;49.464;11.070;2024-03-08T08:18:48;5.30;99.90
4518;DHT22;2271;49.464;11.070;2024-03-08T08:21:14;5.40;99.90
4518;DHT22;2271;49.464;11.070;2024-03-08T08:23:39;5.50;99.90
4518;DHT22;2271;49.464;11.070;2024-03-08T08:26:05;5.50;99.90
4518;DHT22;2271;49.464;11.070;2024-03-08T08:28:33;5.40;99.90
4518;DHT22;2271;49.464;11.070;2024-03-08T08:30:58;5.50;99.90
4518;DHT22;2271;49.464;11.070;2024-03-08T08:33:25;5.40;99.90
4518;DHT22;2271;49.464;11.070;2024-03-08T08:35:51;5.50;99.90
4518;DHT22;2271;49.464;11.070;2024-03-08T08:38:19;5.60;99.90
4518;DHT22;2271;49.464;11.070;2024-03-08T08:40:45;5.70;99.90
4518;DHT22;2271;49.464;11.070;2024-03-08T08:43:12;5.70;99.90
4518;DHT22;2271;49.464;11.070;2024-03-08T08:45:38;5.60;99.90
4518;DHT22;2271;49.464;11.070;2024-03-08T08:48:04;5.80;99.90
4518;DHT22;2271;49.464;11.070;2024-03-08T08:50:30;5.90;99.90
4518;DHT22;2271;49.464;11.070;2024-03-08T08:52:56;5.90;99.90
4518;DHT22;2271;49.464;11.070;2024-03-08T08:55:22;5.90;99.90
4518;DHT22;2271;49.464;11.070;2024-03-08T08:57:51;5.80;99.90
4518;DHT22;2271;49.464;11.070;2024-03-08T09:00:20;5.90;99.90
4518;DHT22;2271;49.464;11.070;2024-03-08T09:02:47;7.30;99.90
4518;DHT22;2271;49.464;11.070;2024-03-08T09:05:14;8.50;99.90
4518;DHT22;2271;49.464;11.070;2024-03-08T09:07:45;9.20;99.90
4518;DHT22;2271;49.464;11.070;2024-03-08T09:10:11;9.60;99.90
4518;DHT22;2271;49.464;11.070;2024-03-08T09:12:38;9.70;99.90
4518;DHT22;2271;49.464;11.070;2024-03-08T09:15:05;9.60;99.90
4518;DHT22;2271;49.464;11.070;2024-03-08T09:17:33;9.70;99.90
4518;DHT22;2271;49.464;11.070;2024-03-08T09:19:59;9.60;99.90
4518;DHT22;2271;49.464;11.070;2024-03-08T09:22:25;9.40;99.90
4518;DHT22;2271;49.464;11.070;2024-03-08T09:24:50;9.30;99.90
4518;DHT22;2271;49.464;11.070;2024-03-08T09:27:16;9.20;99.90
4518;DHT22;2271;49.464;11.070;2024-03-08T09:29:43;8.80;99.90
4518;DHT22;2271;49.464;11.070;2024-03-08T09:32:10;8.60;99.90
4518;DHT22;2271;49.464;11.070;2024-03-08T09:34:37;8.70;99.90
4518;DHT22;2271;49.464;11.070;2024-03-08T09:37:03;8.90;99.90
4518;DHT22;2271;49.464;11.070;2024-03-08T09:39:29;9.00;99.90
4518;DHT22;2271;49.464;11.070;2024-03-08T09:41:55;8.60;99.90
4518;DHT22;2271;49.464;11.070;2024-03-08T09:44:21;8.50;99.90
4518;DHT22;2271;49.464;11.070;2024-03-08T09:46:47;8.60;99.90
4518;DHT22;2271;49.464;11.070;2024-03-08T09:49:13;8.80;99.90
4518;DHT22;2271;49.464;11.070;2024-03-08T09:51:39;8.70;99.90
4518;DHT22;2271;49.464;11.070;2024-03-08T09:54:08;8.90;99.90
4518;DHT22;2271;49.464;11.070;2024-03-08T09:56:35;9.20;99.90
4518;DHT22;2271;49.464;11.070;2024-03-08T09:59:01;9.50;99.90
4518;DHT22;2271;49.464;11.070;2024-03-08T10:02:05;9.40;99.90
4518;DHT22;2271;49.464;11.070;2024-03-08T10:04:31;9.40;99.90
4518;DHT22;2271;49.464;11.070;2024-03-08T10:07:01;9.40;99.90
4518;DHT22;2271;49.464;11.070;2024-03-08T10:09:27;9.30;99.90
4518;DHT22;2271;49.464;11.070;2024-03-08T10:11:56;9.40;99.90
4518;DHT22;2271;49.464;11.070;2024-03-08T10:14:23;9.40;99.90
4518;DHT22;2271;49.464;11.070;2024-03-08T10:16:49;9.40;99.90
4518;DHT22;2271;49.464;11.070;2024-03-08T10:19:15;9.30;99.90
4518;DHT22;2271;49.464;11.070;2024-03-08T10:21:51;9.40;99.90
4518;DHT22;2271;49.464;11.070;2024-03-08T10:24:22;9.60;99.90
4518;DHT22;2271;49.464;11.070;2024-03-08T10:27:00;9.80;99.90
4518;DHT22;2271;49.464;11.070;2024-03-08T10:29:32;9.70;99.90
4518;DHT22;2271;49.464;11.070;2024-03-08T10:31:58;9.60;99.90
4518;DHT22;2271;49.464;11.070;2024-03-08T10:34:24;9.60;99.90
4518;DHT22;2271;49.464;11.070;2024-03-08T10:36:50;9.70;99.90
4518;DHT22;2271;49.464;11.070;2024-03-08T10:39:26;10.00;99.90
4518;DHT22;2271;49.464;11.070;2024-03-08T10:41:58;10.30;99.90
4518;DHT22;2271;49.464;11.070;2024-03-08T10:47:26;10.10;99.90
4518;DHT22;2271;49.464;11.070;2024-03-08T10:52:30;10.00;99.90
4518;DHT22;2271;49.464;11.070;2024-03-08T10:54:57;10.20;99.90
4518;DHT22;2271;49.464;11.070;2024-03-08T10:57:24;10.20;99.90
4518;DHT22;2271;49.464;11.070;2024-03-08T10:59:50;10.10;99.90
4518;DHT22;2271;49.464;11.070;2024-03-08T11:02:17;10.20;99.90
4518;DHT22;2271;49.464;11.070;2024-03-08T11:04:49;10.20;99.90
4518;DHT22;2271;49.464;11.070;2024-03-08T11:07:15;10.50;99.90
4518;DHT22;2271;49.464;11.070;2024-03-08T11:09:47;10.60;99.90
4518;DHT22;2271;49.464;11.070;2024-03-08T11:14:52;10.70;99.90
4518;DHT22;2271;49.464;11.070;2024-03-08T11:20:00;10.70;99.90
4518;DHT22;2271;49.464;11.070;2024-03-08T11:22:33;10.70;99.90
4518;DHT22;2271;49.464;11.070;2024-03-08T11:25:02;10.70;99.90
4518;DHT22;2271;49.464;11.070;2024-03-08T11:27:31;10.60;99.90
4518;DHT22;2271;49.464;11.070;2024-03-08T11:30:03;10.70;99.90
4518;DHT22;2271;49.464;11.070;2024-03-08T11:32:47;10.80;99.90
4518;DHT22;2271;49.464;11.070;2024-03-08T11:35:20;11.10;99.90
4518;DHT22;2271;49.464;11.070;2024-03-08T11:37:46;11.40;99.90
4518;DHT22;2271;49.464;11.070;2024-03-08T11:40:13;11.30;99.90
4518;DHT22;2271;49.464;11.070;2024-03-08T11:42:48;11.60;99.90
4518;DHT22;2271;49.464;11.070;2024-03-08T11:45:17;11.60;99.90
4518;DHT22;2271;49.464;11.070;2024-03-08T11:47:46;11.50;99.90
4518;DHT22;2271;49.464;11.070;2024-03-08T11:50:13;11.60;99.90
4518;DHT22;2271;49.464;11.070;2024-03-08T11:52:39;11.60;99.90
4518;DHT22;2271;49.464;11.070;2024-03-08T11:55:06;11.60;99.90
4518;DHT22;2271;49.464;11.070;2024-03-08T11:57:32;11.90;99.90
4518;DHT22;2271;49.464;11.070;2024-03-08T11:59:59;11.80;99.90
4518;DHT22;2271;49.464;11.070;2024-03-08T12:02:32;11.70;99.90
4518;DHT22;2271;49.464;11.070;2024-03-08T12:05:01;11.90;99.90
4518;DHT22;2271;49.464;11.070;2024-03-08T12:07:29;11.80;99.90
4518;DHT22;2271;49.464;11.070;2024-03-08T12:12:50;11.70;99.90
4518;DHT22;2271;49.464;11.070;2024-03-08T12:15:17;11.60;99.90
4518;DHT22;2271;49.464;11.070;2024-03-08T12:17:44;11.50;99.90
4518;DHT22;2271;49.464;11.070;2024-03-08T12:20:18;11.50;99.90
4518;DHT22;2271;49.464;11.070;2024-03-08T12:22:47;11.50;99.90
4518;DHT22;2271;49.464;11.070;2024-03-08T12:25:14;11.60;99.90
4518;DHT22;2271;49.464;11.070;2024-03-08T12:27:41;11.70;99.90
4518;DHT22;2271;49.464;11.070;2024-03-08T12:30:23;11.80;99.90
4518;DHT22;2271;49.464;11.070;2024-03-08T12:32:59;11.80;99.90
4518;DHT22;2271;49.464;11.070;2024-03-08T12:35:27;11.90;99.90
4518;DHT22;2271;49.464;11.070;2024-03-08T12:37:54;12.00;99.90
4518;DHT22;2271;49.464;11.070;2024-03-08T12:40:26;12.20;99.90
4518;DHT22;2271;49.464;11.070;2024-03-08T12:42:53;12.30;99.90
4518;DHT22;2271;49.464;11.070;2024-03-08T12:45:18;12.30;99.90
4518;DHT22;2271;49.464;11.070;2024-03-08T12:47:44;12.30;99.90
4518;DHT22;2271;49.464;11.070;2024-03-08T12:50:10;12.30;99.90
4518;DHT22;2271;49.464;11.070;2024-03-08T12:52:36;12.10;99.90
4518;DHT22;2271;49.464;11.070;2024-03-08T12:55:02;12.00;99.90
4518;DHT22;2271;49.464;11.070;2024-03-08T12:57:28;12.10;99.90
4518;DHT22;2271;49.464;11.070;2024-03-08T12:59:54;12.20;99.90
4518;DHT22;2271;49.464;11.070;2024-03-08T13:02:20;12.20;99.90
4518;DHT22;2271;49.464;11.070;2024-03-08T13:04:46;12.30;99.90
4518;DHT22;2271;49.464;11.070;2024-03-08T13:07:21;12.40;99.90
4518;DHT22;2271;49.464;11.070;2024-03-08T13:09:47;12.30;99.90
4518;DHT22;2271;49.464;11.070;2024-03-08T13:12:12;12.30;99.90
4518;DHT22;2271;49.464;11.070;2024-03-08T13:14:40;12.40;99.90
4518;DHT22;2271;49.464;11.070;2024-03-08T13:17:06;12.60;99.90
4518;DHT22;2271;49.464;11.070;2024-03-08T13:19:36;12.40;99.90
4518;DHT22;2271;49.464;11.070;2024-03-08T13:22:04;12.10;99.90
4518;DHT22;2271;49.464;11.070;2024-03-08T13:24:32;12.20;99.90
4518;DHT22;2271;49.464;11.070;2024-03-08T13:26:59;12.40;99.90
4518;DHT22;2271;49.464;11.070;2024-03-08T13:29:25;12.40;99.90
4518;DHT22;2271;49.464;11.070;2024-03-08T13:31:51;12.60;99.90
4518;DHT22;2271;49.464;11.070;2024-03-08T13:34:18;12.60;99.90
4518;DHT22;2271;49.464;11.070;2024-03-08T13:36:45;12.70;99.90
4518;DHT22;2271;49.464;11.070;2024-03-08T13:39:11;12.80;99.90
4518;DHT22;2271;49.464;11.070;2024-03-08T13:41:46;12.80;99.90
4518;DHT22;2271;49.464;11.070;2024-03-08T13:44:12;12.80;99.90
4518;DHT22;2271;49.464;11.070;2024-03-08T13:46:37;12.70;99.90
4518;DHT22;2271;49.464;11.070;2024-03-08T13:49:04;12.70;99.90
4518;DHT22;2271;49.464;11.070;2024-03-08T13:51:32;12.60;99.90
4518;DHT22;2271;49.464;11.070;2024-03-08T13:53:59;12.60;99.90
4518;DHT22;2271;49.464;11.070;2024-03-08T13:56:28;12.50;99.90
4518;DHT22;2271;49.464;11.070;2024-03-08T13:58:57;12.40;99.90
4518;DHT22;2271;49.464;11.070;2024-03-08T14:01:23;12.50;99.90
4518;DHT22;2271;49.464;11.070;2024-03-08T14:03:49;12.50;99.90
4518;DHT22;2271;49.464;11.070;2024-03-08T14:06:14;12.50;99.90
4518;DHT22;2271;49.464;11.070;2024-03-08T14:08:40;12.40;99.90
4518;DHT22;2271;49.464;11.070;2024-03-08T14:11:14;12.30;99.90
4518;DHT22;2271;49.464;11.070;2024-03-08T14:13:44;12.20;99.90
4518;DHT22;2271;49.464;11.070;2024-03-08T14:16:13;12.30;99.90
4518;DHT22;2271;49.464;11.070;2024-03-08T14:18:39;12.40;99.90
4518;DHT22;2271;49.464;11.070;2024-03-08T14:21:07;12.50;99.90
4518;DHT22;2271;49.464;11.070;2024-03-08T14:23:41;12.50;99.90
4518;DHT22;2271;49.464;11.070;2024-03-08T14:26:08;12.40;99.90
4518;DHT22;2271;49.464;11.070;2024-03-08T14:28:35;12.20;99.90
4518;DHT22;2271;49.464;11.070;2024-03-08T14:31:01;12.10;99.90
4518;DHT22;2271;49.464;11.070;2024-03-08T14:33:28;12.10;99.90
4518;DHT22;2271;49.464;11.070;2024-03-08T14:35:54;12.00;99.90
4518;DHT22;2271;49.464;11.070;2024-03-08T14:38:23;12.00;99.90
4518;DHT22;2271;49.464;11.070;2024-03-08T14:40:52;12.10;99.90
4518;DHT22;2271;49.464;11.070;2024-03-08T14:43:18;12.10;99.90
4518;DHT22;2271;49.464;11.070;2024-03-08T14:45:46;12.10;99.90
4518;DHT22;2271;49.464;11.070;2024-03-08T14:48:13;12.10;99.90
4518;DHT22;2271;49.464;11.070;2024-03-08T14:50:39;12.10;99.90
4518;DHT22;2271;49.464;11.070;2024-03-08T14:53:06;12.10;99.90
4518;DHT22;2271;49.464;11.070;2024-03-08T14:55:31;12.20;99.90
4518;DHT22;2271;49.464;11.070;2024-03-08T14:57:57;12.00;99.90
4518;DHT22;2271;49.464;11.070;2024-03-08T15:00:23;12.00;99.90
4518;DHT22;2271;49.464;11.070;2024-03-08T15:03:00;12.00;99.90
4518;DHT22;2271;49.464;11.070;2024-03-08T15:05:30;12.00;99.90
4518;DHT22;2271;49.464;11.070;2024-03-08T15:07:58;11.80;99.90
4518;DHT22;2271;49.464;11.070;2024-03-08T15:10:26;11.70;99.90
4518;DHT22;2271;49.464;11.070;2024-03-08T15:12:54;11.70;99.90
4518;DHT22;2271;49.464;11.070;2024-03-08T15:15:21;11.70;99.90
4518;DHT22;2271;49.464;11.070;2024-03-08T15:17:48;11.70;99.90
4518;DHT22;2271;49.464;11.070;2024-03-08T15:20:14;11.60;99.90
4518;DHT22;2271;49.464;11.070;2024-03-08T15:22:49;11.50;99.90
4518;DHT22;2271;49.464;11.070;2024-03-08T15:25:15;11.50;99.90
4518;DHT22;2271;49.464;11.070;2024-03-08T15:27:54;11.40;99.90
4518;DHT22;2271;49.464;11.070;2024-03-08T15:30:20;11.40;99.90
4518;DHT22;2271;49.464;11.070;2024-03-08T15:32:51;11.40;99.90
4518;DHT22;2271;49.464;11.070;2024-03-08T15:35:25;11.30;99.90
4518;DHT22;2271;49.464;11.070;2024-03-08T15:37:51;11.30;99.90
4518;DHT22;2271;49.464;11.070;2024-03-08T15:40:18;11.20;99.90
4518;DHT22;2271;49.464;11.070;2024-03-08T15:42:57;11.20;99.90
4518;DHT22;2271;49.464;11.070;2024-03-08T15:45:23;11.10;99.90
4518;DHT22;2271;49.464;11.070;2024-03-08T15:47:49;11.10;99.90
4518;DHT22;2271;49.464;11.070;2024-03-08T15:50:15;11.10;99.90
4518;DHT22;2271;49.464;11.070;2024-03-08T15:52:44;11.10;99.90
4518;DHT22;2271;49.464;11.070;2024-03-08T15:55:21;11.10;99.90
4518;DHT22;2271;49.464;11.070;2024-03-08T15:57:50;11.00;99.90
4518;DHT22;2271;49.464;11.070;2024-03-08T16:00:17;10.90;99.90
4518;DHT22;2271;49.464;11.070;2024-03-08T16:03:00;10.80;99.90
4518;DHT22;2271;49.464;11.070;2024-03-08T16:05:28;10.80;99.90
4518;DHT22;2271;49.464;11.070;2024-03-08T16:07:54;10.80;99.90
4518;DHT22;2271;49.464;11.070;2024-03-08T16:10:21;10.70;99.90
4518;DHT22;2271;49.464;11.070;2024-03-08T16:12:49;10.60;99.90